sensor_id;sensor_type;location;lat;lon;timestamp;P1;durP1;ratioP1;P2;durP2;ratioP2
21181;SDS011;10749;46.296;7.524;2023-09-19T00:01:54;7.90;;;3.90;;
21181;SDS011;10749;46.296;7.524;2023-09-19T00:04:21;7.97;;;4.37;;
21181;SDS011;10749;46.296;7.524;2023-09-19T00:06:53;7.25;;;3.92;;
21181;SDS011;10749;46.296;7.524;2023-09-19T00:09:19;10.57;;;4.50;;
21181;SDS011;10749;46.296;7.524;2023-09-19T00:11:44;6.27;;;4.30;;
21181;SDS011;10749;46.296;7.524;2023-09-19T00:14:12;8.43;;;3.88;;
21181;SDS011;10749;46.296;7.524;2023-09-19T00:16:39;7.73;;;4.70;;
21181;SDS011;10749;46.296;7.524;2023-09-19T00:19:06;7.63;;;4.22;;
21181;SDS011;10749;46.296;7.524;2023-09-19T00:21:32;6.27;;;3.83;;
21181;SDS011;10749;46.296;7.524;2023-09-19T00:23:57;10.05;;;4.07;;
21181;SDS011;10749;46.296;7.524;2023-09-19T00:26:23;6.60;;;4.23;;
21181;SDS011;10749;46.296;7.524;2023-09-19T00:28:48;7.03;;;4.10;;
21181;SDS011;10749;46.296;7.524;2023-09-19T00:31:17;6.45;;;3.70;;
21181;SDS011;10749;46.296;7.524;2023-09-19T00:33:43;7.50;;;3.90;;
21181;SDS011;10749;46.296;7.524;2023-09-19T00:36:08;7.63;;;3.77;;
21181;SDS011;10749;46.296;7.524;2023-09-19T00:38:33;7.68;;;3.30;;
21181;SDS011;10749;46.296;7.524;2023-09-19T00:40:59;7.05;;;3.35;;
21181;SDS011;10749;46.296;7.524;2023-09-19T00:43:24;6.03;;;3.43;;
21181;SDS011;10749;46.296;7.524;2023-09-19T00:45:50;6.78;;;3.10;;
21181;SDS011;10749;46.296;7.524;2023-09-19T00:48:18;6.90;;;3.87;;
21181;SDS011;10749;46.296;7.524;2023-09-19T00:50:45;7.20;;;4.40;;
21181;SDS011;10749;46.296;7.524;2023-09-19T00:53:14;8.18;;;5.30;;
21181;SDS011;10749;46.296;7.524;2023-09-19T00:55:43;8.57;;;5.53;;
21181;SDS011;10749;46.296;7.524;2023-09-19T00:58:10;7.80;;;4.75;;
21181;SDS011;10749;46.296;7.524;2023-09-19T01:00:36;8.23;;;4.50;;
21181;SDS011;10749;46.296;7.524;2023-09-19T01:03:03;8.65;;;5.35;;
21181;SDS011;10749;46.296;7.524;2023-09-19T01:05:29;9.93;;;5.30;;
21181;SDS011;10749;46.296;7.524;2023-09-19T01:07:55;9.50;;;5.50;;
21181;SDS011;10749;46.296;7.524;2023-09-19T01:10:20;7.63;;;5.05;;
21181;SDS011;10749;46.296;7.524;2023-09-19T01:13:03;8.73;;;4.75;;
21181;SDS011;10749;46.296;7.524;2023-09-19T01:16:10;10.17;;;5.37;;
21181;SDS011;10749;46.296;7.524;2023-09-19T01:30:20;8.73;;;5.03;;
21181;SDS011;10749;46.296;7.524;2023-09-19T01:32:50;9.03;;;5.70;;
21181;SDS011;10749;46.296;7.524;2023-09-19T01:35:17;9.10;;;5.38;;
21181;SDS011;10749;46.296;7.524;2023-09-19T01:37:43;9.38;;;5.68;;
21181;SDS011;10749;46.296;7.524;2023-09-19T01:40:09;9.20;;;5.87;;
21181;SDS011;10749;46.296;7.524;2023-09-19T01:46:24;7.43;;;5.27;;
21181;SDS011;10749;46.296;7.524;2023-09-19T01:49:08;7.27;;;4.70;;
21181;SDS011;10749;46.296;7.524;2023-09-19T01:51:56;5.87;;;4.53;;
21181;SDS011;10749;46.296;7.524;2023-09-19T01:54:30;6.63;;;4.50;;
21181;SDS011;10749;46.296;7.524;2023-09-19T01:57:20;6.25;;;4.90;;
21181;SDS011;10749;46.296;7.524;2023-09-19T01:59:54;7.47;;;5.20;;
21181;SDS011;10749;46.296;7.524;2023-09-19T02:02:26;6.07;;;4.45;;
21181;SDS011;10749;46.296;7.524;2023-09-19T02:04:54;6.47;;;4.73;;
21181;SDS011;10749;46.296;7.524;2023-09-19T02:07:20;8.33;;;5.00;;
21181;SDS011;10749;46.296;7.524;2023-09-19T02:09:45;7.25;;;5.05;;
21181;SDS011;10749;46.296;7.524;2023-09-19T02:12:12;6.57;;;4.97;;
21181;SDS011;10749;46.296;7.524;2023-09-19T02:14:40;6.90;;;4.80;;
21181;SDS011;10749;46.296;7.524;2023-09-19T02:17:05;8.10;;;4.85;;
21181;SDS011;10749;46.296;7.524;2023-09-19T02:19:36;6.22;;;4.55;;
21181;SDS011;10749;46.296;7.524;2023-09-19T02:22:03;8.48;;;4.97;;
21181;SDS011;10749;46.296;7.524;2023-09-19T02:24:32;7.45;;;5.10;;
21181;SDS011;10749;46.296;7.524;2023-09-19T02:26:58;8.53;;;4.90;;
21181;SDS011;10749;46.296;7.524;2023-09-19T02:29:25;7.33;;;5.30;;
21181;SDS011;10749;46.296;7.524;2023-09-19T02:31:51;10.83;;;5.30;;
21181;SDS011;10749;46.296;7.524;2023-09-19T02:34:18;9.97;;;5.73;;
21181;SDS011;10749;46.296;7.524;2023-09-19T02:36:44;10.75;;;6.07;;
21181;SDS011;10749;46.296;7.524;2023-09-19T02:39:10;9.02;;;6.20;;
21181;SDS011;10749;46.296;7.524;2023-09-19T02:41:36;9.27;;;5.83;;
21181;SDS011;10749;46.296;7.524;2023-09-19T02:44:01;10.53;;;6.10;;
21181;SDS011;10749;46.296;7.524;2023-09-19T02:46:28;9.83;;;6.23;;
21181;SDS011;10749;46.296;7.524;2023-09-19T02:48:53;8.50;;;5.80;;
21181;SDS011;10749;46.296;7.524;2023-09-19T02:51:19;9.50;;;6.50;;
21181;SDS011;10749;46.296;7.524;2023-09-19T02:53:45;7.30;;;5.20;;
21181;SDS011;10749;46.296;7.524;2023-09-19T02:56:12;6.63;;;4.80;;
21181;SDS011;10749;46.296;7.524;2023-09-19T02:58:38;6.90;;;4.70;;
21181;SDS011;10749;46.296;7.524;2023-09-19T03:01:07;4.27;;;3.30;;
21181;SDS011;10749;46.296;7.524;2023-09-19T03:03:33;6.33;;;4.67;;
21181;SDS011;10749;46.296;7.524;2023-09-19T03:05:59;7.63;;;5.00;;
21181;SDS011;10749;46.296;7.524;2023-09-19T03:08:29;6.82;;;4.93;;
21181;SDS011;10749;46.296;7.524;2023-09-19T03:10:54;8.35;;;4.90;;
21181;SDS011;10749;46.296;7.524;2023-09-19T03:13:19;7.63;;;5.00;;
21181;SDS011;10749;46.296;7.524;2023-09-19T03:15:45;7.55;;;5.18;;
21181;SDS011;10749;46.296;7.524;2023-09-19T03:18:12;6.97;;;4.93;;
21181;SDS011;10749;46.296;7.524;2023-09-19T03:20:37;6.65;;;4.40;;
21181;SDS011;10749;46.296;7.524;2023-09-19T03:23:03;6.38;;;4.38;;
21181;SDS011;10749;46.296;7.524;2023-09-19T03:25:31;6.00;;;4.20;;
21181;SDS011;10749;46.296;7.524;2023-09-19T03:27:56;5.60;;;4.15;;
21181;SDS011;10749;46.296;7.524;2023-09-19T03:30:23;6.25;;;4.72;;
21181;SDS011;10749;46.296;7.524;2023-09-19T03:32:48;6.57;;;4.20;;
21181;SDS011;10749;46.296;7.524;2023-09-19T03:35:14;5.18;;;3.72;;
21181;SDS011;10749;46.296;7.524;2023-09-19T03:37:40;6.60;;;3.78;;
21181;SDS011;10749;46.296;7.524;2023-09-19T03:40:07;5.33;;;3.60;;
21181;SDS011;10749;46.296;7.524;2023-09-19T03:42:33;6.25;;;3.60;;
21181;SDS011;10749;46.296;7.524;2023-09-19T03:45:01;5.77;;;4.07;;
21181;SDS011;10749;46.296;7.524;2023-09-19T03:47:29;5.45;;;3.75;;
21181;SDS011;10749;46.296;7.524;2023-09-19T03:49:54;5.78;;;3.95;;
21181;SDS011;10749;46.296;7.524;2023-09-19T03:52:19;4.00;;;3.27;;
21181;SDS011;10749;46.296;7.524;2023-09-19T03:54:45;6.23;;;4.20;;
21181;SDS011;10749;46.296;7.524;2023-09-19T03:57:10;5.33;;;3.57;;
21181;SDS011;10749;46.296;7.524;2023-09-19T03:59:37;6.30;;;3.57;;
21181;SDS011;10749;46.296;7.524;2023-09-19T04:02:03;5.18;;;3.75;;
21181;SDS011;10749;46.296;7.524;2023-09-19T04:04:29;6.05;;;3.88;;
21181;SDS011;10749;46.296;7.524;2023-09-19T04:06:54;5.22;;;4.05;;
21181;SDS011;10749;46.296;7.524;2023-09-19T04:09:20;8.93;;;4.68;;
21181;SDS011;10749;46.296;7.524;2023-09-19T04:11:45;9.95;;;4.55;;
21181;SDS011;10749;46.296;7.524;2023-09-19T04:14:10;7.32;;;4.95;;
21181;SDS011;10749;46.296;7.524;2023-09-19T04:16:36;7.60;;;4.85;;
21181;SDS011;10749;46.296;7.524;2023-09-19T04:19:01;8.85;;;4.93;;
21181;SDS011;10749;46.296;7.524;2023-09-19T04:21:27;8.40;;;5.28;;
21181;SDS011;10749;46.296;7.524;2023-09-19T04:23:54;7.30;;;4.55;;
21181;SDS011;10749;46.296;7.524;2023-09-19T04:26:19;7.80;;;4.82;;
21181;SDS011;10749;46.296;7.524;2023-09-19T04:28:44;7.50;;;5.00;;
21181;SDS011;10749;46.296;7.524;2023-09-19T04:31:11;7.78;;;4.97;;
21181;SDS011;10749;46.296;7.524;2023-09-19T04:33:36;8.23;;;5.00;;
21181;SDS011;10749;46.296;7.524;2023-09-19T04:36:02;7.07;;;5.03;;
21181;SDS011;10749;46.296;7.524;2023-09-19T04:38:30;9.98;;;4.50;;
21181;SDS011;10749;46.296;7.524;2023-09-19T04:40:58;7.87;;;5.00;;
21181;SDS011;10749;46.296;7.524;2023-09-19T04:43:24;7.60;;;5.13;;
21181;SDS011;10749;46.296;7.524;2023-09-19T04:45:49;9.35;;;5.35;;
21181;SDS011;10749;46.296;7.524;2023-09-19T04:48:15;9.35;;;6.10;;
21181;SDS011;10749;46.296;7.524;2023-09-19T04:50:41;11.07;;;6.07;;
21181;SDS011;10749;46.296;7.524;2023-09-19T04:53:08;8.93;;;5.75;;
21181;SDS011;10749;46.296;7.524;2023-09-19T04:55:33;8.13;;;5.72;;
21181;SDS011;10749;46.296;7.524;2023-09-19T04:57:58;7.95;;;5.45;;
21181;SDS011;10749;46.296;7.524;2023-09-19T05:00:23;8.95;;;5.88;;
21181;SDS011;10749;46.296;7.524;2023-09-19T05:02:50;10.20;;;5.60;;
21181;SDS011;10749;46.296;7.524;2023-09-19T05:05:18;11.80;;;5.47;;
21181;SDS011;10749;46.296;7.524;2023-09-19T05:07:47;10.55;;;5.90;;
21181;SDS011;10749;46.296;7.524;2023-09-19T05:10:13;9.53;;;5.87;;
21181;SDS011;10749;46.296;7.524;2023-09-19T05:12:39;8.88;;;5.72;;
21181;SDS011;10749;46.296;7.524;2023-09-19T05:15:06;7.80;;;5.53;;
21181;SDS011;10749;46.296;7.524;2023-09-19T05:17:32;9.77;;;5.82;;
21181;SDS011;10749;46.296;7.524;2023-09-19T05:19:58;9.20;;;5.80;;
21181;SDS011;10749;46.296;7.524;2023-09-19T05:22:28;10.88;;;6.07;;
21181;SDS011;10749;46.296;7.524;2023-09-19T05:24:54;10.37;;;6.33;;
21181;SDS011;10749;46.296;7.524;2023-09-19T05:27:19;9.73;;;6.10;;
21181;SDS011;10749;46.296;7.524;2023-09-19T05:29:45;10.35;;;5.65;;
21181;SDS011;10749;46.296;7.524;2023-09-19T05:32:11;9.70;;;6.23;;
21181;SDS011;10749;46.296;7.524;2023-09-19T05:34:37;9.40;;;6.13;;
21181;SDS011;10749;46.296;7.524;2023-09-19T05:37:03;8.85;;;6.00;;
21181;SDS011;10749;46.296;7.524;2023-09-19T05:39:30;9.73;;;6.88;;
21181;SDS011;10749;46.296;7.524;2023-09-19T05:41:55;12.18;;;6.63;;
21181;SDS011;10749;46.296;7.524;2023-09-19T05:44:22;11.82;;;6.65;;
21181;SDS011;10749;46.296;7.524;2023-09-19T05:46:47;8.97;;;6.30;;
21181;SDS011;10749;46.296;7.524;2023-09-19T05:49:13;9.70;;;6.80;;
21181;SDS011;10749;46.296;7.524;2023-09-19T05:51:38;11.27;;;6.90;;
21181;SDS011;10749;46.296;7.524;2023-09-19T05:54:04;12.27;;;6.95;;
21181;SDS011;10749;46.296;7.524;2023-09-19T05:56:32;10.27;;;6.60;;
21181;SDS011;10749;46.296;7.524;2023-09-19T05:58:57;10.85;;;7.07;;
21181;SDS011;10749;46.296;7.524;2023-09-19T06:01:22;10.98;;;6.82;;
21181;SDS011;10749;46.296;7.524;2023-09-19T06:03:48;11.77;;;7.00;;
21181;SDS011;10749;46.296;7.524;2023-09-19T06:06:13;11.18;;;6.68;;
21181;SDS011;10749;46.296;7.524;2023-09-19T06:08:39;10.10;;;6.80;;
21181;SDS011;10749;46.296;7.524;2023-09-19T06:11:04;10.17;;;7.50;;
21181;SDS011;10749;46.296;7.524;2023-09-19T06:13:32;11.07;;;7.13;;
21181;SDS011;10749;46.296;7.524;2023-09-19T06:15:58;10.70;;;7.05;;
21181;SDS011;10749;46.296;7.524;2023-09-19T06:18:25;11.00;;;7.03;;
21181;SDS011;10749;46.296;7.524;2023-09-19T06:20:51;11.37;;;7.30;;
21181;SDS011;10749;46.296;7.524;2023-09-19T06:23:17;10.40;;;7.28;;
21181;SDS011;10749;46.296;7.524;2023-09-19T06:25:44;10.47;;;7.23;;
21181;SDS011;10749;46.296;7.524;2023-09-19T06:28:10;12.05;;;7.20;;
21181;SDS011;10749;46.296;7.524;2023-09-19T06:30:37;10.98;;;7.38;;
21181;SDS011;10749;46.296;7.524;2023-09-19T06:33:05;9.90;;;6.78;;
21181;SDS011;10749;46.296;7.524;2023-09-19T06:35:31;10.02;;;7.05;;
21181;SDS011;10749;46.296;7.524;2023-09-19T06:37:58;11.07;;;7.63;;
21181;SDS011;10749;46.296;7.524;2023-09-19T06:40:23;10.07;;;6.70;;
21181;SDS011;10749;46.296;7.524;2023-09-19T06:42:52;11.30;;;6.70;;
21181;SDS011;10749;46.296;7.524;2023-09-19T06:45:19;9.43;;;7.13;;
21181;SDS011;10749;46.296;7.524;2023-09-19T06:47:48;9.73;;;6.90;;
21181;SDS011;10749;46.296;7.524;2023-09-19T06:50:19;10.77;;;7.30;;
21181;SDS011;10749;46.296;7.524;2023-09-19T06:52:47;13.15;;;7.50;;
21181;SDS011;10749;46.296;7.524;2023-09-19T06:55:15;11.60;;;7.10;;
21181;SDS011;10749;46.296;7.524;2023-09-19T06:57:44;10.95;;;6.95;;
21181;SDS011;10749;46.296;7.524;2023-09-19T07:00:10;8.40;;;6.32;;
21181;SDS011;10749;46.296;7.524;2023-09-19T07:02:56;9.85;;;6.60;;
21181;SDS011;10749;46.296;7.524;2023-09-19T07:05:32;8.20;;;5.88;;
21181;SDS011;10749;46.296;7.524;2023-09-19T07:08:01;8.98;;;6.50;;
21181;SDS011;10749;46.296;7.524;2023-09-19T07:10:26;10.60;;;7.15;;
21181;SDS011;10749;46.296;7.524;2023-09-19T07:13:03;10.32;;;7.60;;
21181;SDS011;10749;46.296;7.524;2023-09-19T07:15:29;10.45;;;7.43;;
21181;SDS011;10749;46.296;7.524;2023-09-19T07:18:00;10.85;;;7.18;;
21181;SDS011;10749;46.296;7.524;2023-09-19T07:20:26;11.43;;;6.85;;
21181;SDS011;10749;46.296;7.524;2023-09-19T07:22:52;11.10;;;7.88;;
21181;SDS011;10749;46.296;7.524;2023-09-19T07:25:19;11.30;;;7.10;;
21181;SDS011;10749;46.296;7.524;2023-09-19T07:27:45;8.98;;;6.30;;
21181;SDS011;10749;46.296;7.524;2023-09-19T07:30:10;9.82;;;6.38;;
21181;SDS011;10749;46.296;7.524;2023-09-19T07:32:36;8.57;;;6.25;;
21181;SDS011;10749;46.296;7.524;2023-09-19T07:35:03;9.27;;;6.15;;
21181;SDS011;10749;46.296;7.524;2023-09-19T07:37:30;7.90;;;6.10;;
21181;SDS011;10749;46.296;7.524;2023-09-19T07:39:58;10.20;;;6.35;;
21181;SDS011;10749;46.296;7.524;2023-09-19T07:42:24;8.02;;;5.63;;
21181;SDS011;10749;46.296;7.524;2023-09-19T07:44:49;8.98;;;5.88;;
21181;SDS011;10749;46.296;7.524;2023-09-19T07:47:15;8.82;;;6.07;;
21181;SDS011;10749;46.296;7.524;2023-09-19T07:49:41;11.68;;;5.68;;
21181;SDS011;10749;46.296;7.524;2023-09-19T07:52:10;9.00;;;5.60;;
21181;SDS011;10749;46.296;7.524;2023-09-19T07:54:35;7.85;;;5.35;;
21181;SDS011;10749;46.296;7.524;2023-09-19T07:57:02;7.80;;;5.57;;
21181;SDS011;10749;46.296;7.524;2023-09-19T07:59:27;6.95;;;5.05;;
21181;SDS011;10749;46.296;7.524;2023-09-19T08:01:53;7.80;;;5.10;;
21181;SDS011;10749;46.296;7.524;2023-09-19T08:04:18;7.10;;;4.68;;
21181;SDS011;10749;46.296;7.524;2023-09-19T08:06:44;6.88;;;4.72;;
21181;SDS011;10749;46.296;7.524;2023-09-19T08:09:10;6.40;;;4.95;;
21181;SDS011;10749;46.296;7.524;2023-09-19T08:11:36;7.78;;;5.25;;
21181;SDS011;10749;46.296;7.524;2023-09-19T08:14:02;9.00;;;4.93;;
21181;SDS011;10749;46.296;7.524;2023-09-19T08:16:27;5.88;;;4.60;;
21181;SDS011;10749;46.296;7.524;2023-09-19T08:18:53;6.10;;;4.30;;
21181;SDS011;10749;46.296;7.524;2023-09-19T08:21:21;5.78;;;4.00;;
21181;SDS011;10749;46.296;7.524;2023-09-19T08:23:47;5.38;;;3.85;;
21181;SDS011;10749;46.296;7.524;2023-09-19T08:26:12;6.50;;;4.38;;
21181;SDS011;10749;46.296;7.524;2023-09-19T08:28:37;5.32;;;4.05;;
21181;SDS011;10749;46.296;7.524;2023-09-19T08:31:06;6.75;;;4.78;;
21181;SDS011;10749;46.296;7.524;2023-09-19T08:33:33;7.72;;;4.60;;
21181;SDS011;10749;46.296;7.524;2023-09-19T08:36:00;6.63;;;3.92;;
21181;SDS011;10749;46.296;7.524;2023-09-19T08:38:33;6.03;;;4.03;;
21181;SDS011;10749;46.296;7.524;2023-09-19T08:40:59;8.43;;;4.05;;
21181;SDS011;10749;46.296;7.524;2023-09-19T08:43:26;6.78;;;3.58;;
21181;SDS011;10749;46.296;7.524;2023-09-19T08:51:42;5.38;;;3.05;;
21181;SDS011;10749;46.296;7.524;2023-09-19T08:54:21;4.20;;;2.88;;
21181;SDS011;10749;46.296;7.524;2023-09-19T08:56:51;4.18;;;2.70;;
21181;SDS011;10749;46.296;7.524;2023-09-19T08:59:20;4.82;;;3.00;;
21181;SDS011;10749;46.296;7.524;2023-09-19T09:01:49;5.30;;;2.30;;
21181;SDS011;10749;46.296;7.524;2023-09-19T09:04:18;4.20;;;2.25;;
21181;SDS011;10749;46.296;7.524;2023-09-19T09:06:45;3.55;;;2.13;;
21181;SDS011;10749;46.296;7.524;2023-09-19T09:09:14;4.35;;;2.10;;
21181;SDS011;10749;46.296;7.524;2023-09-19T09:11:40;3.03;;;1.70;;
21181;SDS011;10749;46.296;7.524;2023-09-19T09:14:08;4.40;;;2.08;;
21181;SDS011;10749;46.296;7.524;2023-09-19T09:16:34;2.78;;;2.00;;
21181;SDS011;10749;46.296;7.524;2023-09-19T09:18:59;5.03;;;1.92;;
21181;SDS011;10749;46.296;7.524;2023-09-19T09:21:25;3.35;;;1.52;;
21181;SDS011;10749;46.296;7.524;2023-09-19T09:23:51;3.58;;;1.80;;
21181;SDS011;10749;46.296;7.524;2023-09-19T09:26:17;3.08;;;1.70;;
21181;SDS011;10749;46.296;7.524;2023-09-19T09:28:49;2.17;;;1.70;;
21181;SDS011;10749;46.296;7.524;2023-09-19T09:31:23;2.70;;;1.75;;
21181;SDS011;10749;46.296;7.524;2023-09-19T09:33:53;2.33;;;1.25;;
21181;SDS011;10749;46.296;7.524;2023-09-19T09:36:32;2.28;;;1.30;;
21181;SDS011;10749;46.296;7.524;2023-09-19T09:38:59;3.30;;;1.30;;
21181;SDS011;10749;46.296;7.524;2023-09-19T09:41:40;3.60;;;1.33;;
21181;SDS011;10749;46.296;7.524;2023-09-19T09:44:12;2.40;;;1.60;;
21181;SDS011;10749;46.296;7.524;2023-09-19T09:46:45;2.47;;;1.23;;
21181;SDS011;10749;46.296;7.524;2023-09-19T09:49:23;3.13;;;1.20;;
21181;SDS011;10749;46.296;7.524;2023-09-19T09:52:08;2.08;;;1.23;;
21181;SDS011;10749;46.296;7.524;2023-09-19T09:54:41;2.17;;;1.40;;
21181;SDS011;10749;46.296;7.524;2023-09-19T09:57:24;2.17;;;1.33;;
21181;SDS011;10749;46.296;7.524;2023-09-19T10:02:28;1.65;;;1.10;;
21181;SDS011;10749;46.296;7.524;2023-09-19T10:04:57;1.42;;;1.10;;
21181;SDS011;10749;46.296;7.524;2023-09-19T10:07:30;3.63;;;1.60;;
21181;SDS011;10749;46.296;7.524;2023-09-19T10:13:17;2.15;;;1.30;;
21181;SDS011;10749;46.296;7.524;2023-09-19T10:15:49;2.25;;;1.35;;
21181;SDS011;10749;46.296;7.524;2023-09-19T10:18:22;3.70;;;1.13;;
21181;SDS011;10749;46.296;7.524;2023-09-19T10:20:50;3.70;;;1.75;;
21181;SDS011;10749;46.296;7.524;2023-09-19T10:23:19;4.43;;;1.30;;
21181;SDS011;10749;46.296;7.524;2023-09-19T10:25:49;2.25;;;1.33;;
21181;SDS011;10749;46.296;7.524;2023-09-19T10:28:16;3.25;;;1.40;;
21181;SDS011;10749;46.296;7.524;2023-09-19T10:30:49;2.50;;;1.52;;
21181;SDS011;10749;46.296;7.524;2023-09-19T10:33:17;5.05;;;1.60;;
21181;SDS011;10749;46.296;7.524;2023-09-19T10:35:48;2.45;;;1.80;;
21181;SDS011;10749;46.296;7.524;2023-09-19T10:38:19;4.25;;;1.88;;
21181;SDS011;10749;46.296;7.524;2023-09-19T10:40:51;4.28;;;2.20;;
21181;SDS011;10749;46.296;7.524;2023-09-19T10:43:18;2.58;;;1.92;;
21181;SDS011;10749;46.296;7.524;2023-09-19T10:45:46;3.25;;;1.80;;
21181;SDS011;10749;46.296;7.524;2023-09-19T10:48:17;3.80;;;1.27;;
21181;SDS011;10749;46.296;7.524;2023-09-19T10:51:24;1.88;;;1.23;;
21181;SDS011;10749;46.296;7.524;2023-09-19T10:53:52;3.75;;;1.33;;
21181;SDS011;10749;46.296;7.524;2023-09-19T10:56:27;1.52;;;1.00;;
21181;SDS011;10749;46.296;7.524;2023-09-19T10:59:10;1.02;;;0.80;;
21181;SDS011;10749;46.296;7.524;2023-09-19T11:01:47;1.80;;;0.90;;
21181;SDS011;10749;46.296;7.524;2023-09-19T11:04:20;2.40;;;0.95;;
21181;SDS011;10749;46.296;7.524;2023-09-19T11:07:02;1.10;;;0.80;;
21181;SDS011;10749;46.296;7.524;2023-09-19T11:14:57;1.63;;;0.98;;
21181;SDS011;10749;46.296;7.524;2023-09-19T11:17:39;3.17;;;0.90;;
21181;SDS011;10749;46.296;7.524;2023-09-19T11:30:37;2.67;;;1.30;;
21181;SDS011;10749;46.296;7.524;2023-09-19T11:36:03;2.40;;;1.20;;
21181;SDS011;10749;46.296;7.524;2023-09-19T11:43:45;1.27;;;1.00;;
21181;SDS011;10749;46.296;7.524;2023-09-19T11:46:11;1.38;;;1.10;;
21181;SDS011;10749;46.296;7.524;2023-09-19T11:48:38;2.25;;;1.35;;
21181;SDS011;10749;46.296;7.524;2023-09-19T11:51:09;1.48;;;0.95;;
21181;SDS011;10749;46.296;7.524;2023-09-19T11:53:44;1.42;;;1.10;;
21181;SDS011;10749;46.296;7.524;2023-09-19T11:56:13;3.50;;;1.10;;
21181;SDS011;10749;46.296;7.524;2023-09-19T11:58:40;2.88;;;0.90;;
21181;SDS011;10749;46.296;7.524;2023-09-19T12:01:07;1.50;;;0.98;;
21181;SDS011;10749;46.296;7.524;2023-09-19T12:03:40;1.63;;;0.95;;
21181;SDS011;10749;46.296;7.524;2023-09-19T12:06:11;1.33;;;0.70;;
21181;SDS011;10749;46.296;7.524;2023-09-19T12:08:43;1.75;;;0.88;;
21181;SDS011;10749;46.296;7.524;2023-09-19T12:11:14;1.08;;;0.55;;
21181;SDS011;10749;46.296;7.524;2023-09-19T12:13:44;1.23;;;0.85;;
21181;SDS011;10749;46.296;7.524;2023-09-19T12:16:11;1.50;;;0.85;;
21181;SDS011;10749;46.296;7.524;2023-09-19T12:18:40;1.00;;;0.60;;
21181;SDS011;10749;46.296;7.524;2023-09-19T12:21:20;1.35;;;0.85;;
21181;SDS011;10749;46.296;7.524;2023-09-19T12:24:09;3.28;;;0.93;;
21181;SDS011;10749;46.296;7.524;2023-09-19T12:26:45;1.35;;;0.80;;
21181;SDS011;10749;46.296;7.524;2023-09-19T12:29:20;1.50;;;0.80;;
21181;SDS011;10749;46.296;7.524;2023-09-19T12:31:56;2.38;;;0.70;;
21181;SDS011;10749;46.296;7.524;2023-09-19T12:34:26;1.20;;;0.57;;
21181;SDS011;10749;46.296;7.524;2023-09-19T12:39:50;1.00;;;0.90;;
21181;SDS011;10749;46.296;7.524;2023-09-19T12:42:24;1.85;;;0.65;;
21181;SDS011;10749;46.296;7.524;2023-09-19T12:44:56;0.85;;;0.70;;
21181;SDS011;10749;46.296;7.524;2023-09-19T12:47:27;1.52;;;0.90;;
21181;SDS011;10749;46.296;7.524;2023-09-19T12:52:37;1.52;;;0.77;;
21181;SDS011;10749;46.296;7.524;2023-09-19T12:55:04;3.08;;;0.80;;
21181;SDS011;10749;46.296;7.524;2023-09-19T12:57:34;2.15;;;0.75;;
21181;SDS011;10749;46.296;7.524;2023-09-19T13:00:03;3.92;;;0.88;;
21181;SDS011;10749;46.296;7.524;2023-09-19T13:02:32;3.40;;;0.95;;
21181;SDS011;10749;46.296;7.524;2023-09-19T13:04:58;2.83;;;0.90;;
21181;SDS011;10749;46.296;7.524;2023-09-19T13:07:40;2.80;;;0.80;;
21181;SDS011;10749;46.296;7.524;2023-09-19T13:10:10;2.22;;;0.90;;
21181;SDS011;10749;46.296;7.524;2023-09-19T13:12:39;3.22;;;1.05;;
21181;SDS011;10749;46.296;7.524;2023-09-19T13:15:08;2.58;;;0.90;;
21181;SDS011;10749;46.296;7.524;2023-09-19T13:17:45;2.33;;;1.08;;
21181;SDS011;10749;46.296;7.524;2023-09-19T13:23:35;2.20;;;0.82;;
21181;SDS011;10749;46.296;7.524;2023-09-19T13:25:59;0.93;;;0.70;;
21181;SDS011;10749;46.296;7.524;2023-09-19T13:28:25;2.08;;;0.80;;
21181;SDS011;10749;46.296;7.524;2023-09-19T13:30:51;1.77;;;1.00;;
21181;SDS011;10749;46.296;7.524;2023-09-19T13:33:16;3.25;;;0.93;;
21181;SDS011;10749;46.296;7.524;2023-09-19T13:35:46;1.98;;;0.90;;
21181;SDS011;10749;46.296;7.524;2023-09-19T13:38:13;1.55;;;0.80;;
21181;SDS011;10749;46.296;7.524;2023-09-19T13:40:39;1.02;;;0.60;;
21181;SDS011;10749;46.296;7.524;2023-09-19T13:43:06;1.50;;;0.90;;
21181;SDS011;10749;46.296;7.524;2023-09-19T13:45:32;1.67;;;0.80;;
21181;SDS011;10749;46.296;7.524;2023-09-19T13:47:58;2.25;;;0.70;;
21181;SDS011;10749;46.296;7.524;2023-09-19T13:50:26;4.95;;;1.15;;
21181;SDS011;10749;46.296;7.524;2023-09-19T13:52:54;2.83;;;0.70;;
21181;SDS011;10749;46.296;7.524;2023-09-19T13:55:19;1.85;;;0.93;;
21181;SDS011;10749;46.296;7.524;2023-09-19T13:57:48;1.35;;;0.70;;
21181;SDS011;10749;46.296;7.524;2023-09-19T14:00:23;8.57;;;2.97;;
21181;SDS011;10749;46.296;7.524;2023-09-19T14:02:48;8.38;;;4.28;;
21181;SDS011;10749;46.296;7.524;2023-09-19T14:05:14;4.82;;;2.65;;
21181;SDS011;10749;46.296;7.524;2023-09-19T14:07:41;5.60;;;3.03;;
21181;SDS011;10749;46.296;7.524;2023-09-19T14:10:10;5.18;;;2.92;;
21181;SDS011;10749;46.296;7.524;2023-09-19T14:12:39;2.95;;;1.40;;
21181;SDS011;10749;46.296;7.524;2023-09-19T14:15:08;5.85;;;2.63;;
21181;SDS011;10749;46.296;7.524;2023-09-19T14:17:34;2.70;;;1.60;;
21181;SDS011;10749;46.296;7.524;2023-09-19T14:19:59;1.85;;;1.02;;
21181;SDS011;10749;46.296;7.524;2023-09-19T14:22:25;4.00;;;0.70;;
21181;SDS011;10749;46.296;7.524;2023-09-19T14:24:50;1.30;;;0.80;;
21181;SDS011;10749;46.296;7.524;2023-09-19T14:27:16;1.35;;;0.70;;
21181;SDS011;10749;46.296;7.524;2023-09-19T14:29:42;1.60;;;0.70;;
21181;SDS011;10749;46.296;7.524;2023-09-19T14:32:07;2.15;;;0.82;;
21181;SDS011;10749;46.296;7.524;2023-09-19T14:34:32;1.08;;;0.50;;
21181;SDS011;10749;46.296;7.524;2023-09-19T14:36:58;2.63;;;0.88;;
21181;SDS011;10749;46.296;7.524;2023-09-19T14:39:23;4.20;;;0.70;;
21181;SDS011;10749;46.296;7.524;2023-09-19T14:41:49;1.20;;;0.73;;
21181;SDS011;10749;46.296;7.524;2023-09-19T14:44:15;1.90;;;0.60;;
21181;SDS011;10749;46.296;7.524;2023-09-19T14:46:41;3.15;;;0.82;;
21181;SDS011;10749;46.296;7.524;2023-09-19T14:49:06;1.33;;;0.80;;
21181;SDS011;10749;46.296;7.524;2023-09-19T14:51:32;0.80;;;0.60;;
21181;SDS011;10749;46.296;7.524;2023-09-19T14:53:57;3.60;;;0.60;;
21181;SDS011;10749;46.296;7.524;2023-09-19T14:56:23;1.77;;;0.63;;
21181;SDS011;10749;46.296;7.524;2023-09-19T14:58:50;1.73;;;0.50;;
21181;SDS011;10749;46.296;7.524;2023-09-19T15:01:15;2.38;;;0.80;;
21181;SDS011;10749;46.296;7.524;2023-09-19T15:03:41;2.30;;;0.77;;
21181;SDS011;10749;46.296;7.524;2023-09-19T15:06:12;0.90;;;0.60;;
21181;SDS011;10749;46.296;7.524;2023-09-19T15:08:42;2.20;;;0.57;;
21181;SDS011;10749;46.296;7.524;2023-09-19T15:11:15;0.60;;;0.45;;
21181;SDS011;10749;46.296;7.524;2023-09-19T15:13:42;1.35;;;0.57;;
21181;SDS011;10749;46.296;7.524;2023-09-19T15:16:09;1.20;;;0.80;;
21181;SDS011;10749;46.296;7.524;2023-09-19T15:18:35;1.58;;;0.60;;
21181;SDS011;10749;46.296;7.524;2023-09-19T15:21:06;3.13;;;0.70;;
21181;SDS011;10749;46.296;7.524;2023-09-19T15:23:35;0.75;;;0.50;;
21181;SDS011;10749;46.296;7.524;2023-09-19T15:26:04;1.00;;;0.60;;
21181;SDS011;10749;46.296;7.524;2023-09-19T15:28:31;1.50;;;0.68;;
21181;SDS011;10749;46.296;7.524;2023-09-19T15:31:05;1.25;;;0.50;;
21181;SDS011;10749;46.296;7.524;2023-09-19T15:33:35;1.25;;;0.60;;
21181;SDS011;10749;46.296;7.524;2023-09-19T15:36:01;1.58;;;0.52;;
21181;SDS011;10749;46.296;7.524;2023-09-19T15:38:27;1.52;;;0.63;;
21181;SDS011;10749;46.296;7.524;2023-09-19T15:40:53;1.85;;;0.60;;
21181;SDS011;10749;46.296;7.524;2023-09-19T15:43:20;1.15;;;0.60;;
21181;SDS011;10749;46.296;7.524;2023-09-19T15:45:46;3.17;;;0.60;;
21181;SDS011;10749;46.296;7.524;2023-09-19T15:48:13;2.15;;;0.60;;
21181;SDS011;10749;46.296;7.524;2023-09-19T15:50:39;1.17;;;0.60;;
21181;SDS011;10749;46.296;7.524;2023-09-19T15:53:07;0.85;;;0.50;;